Station: POINT AVOID

  Atmospheric Gas Attenuation - ITU Rec 676-11   --------------- db/100km ---------------
Date Time Temp RH % AH g/m3 Dew Point Wind Direction Speed kph Gust kph Barometer mB Rainfall Since 9am 24GHz 47GHz 76GHz 122GHz 134GHz 241GHz
24 20:30 26 46 11.2 13.5 13 15 1001.4 0 24.5 26.0 43.0 113.2 113.7 393.7
24 20:20 26.6 45 11.33 13.7 13 13 1013.1 0 24.7 26.4 43.6 114.9 115.5 399.9
24 20:10 27.7 42 11.24 13.6 13 15 1013.1 0 24.4 26.0 42.7 112.5 112.8 390.7
24 20:00 28.2 41 11.27 13.7 13 17 1001.5 0 24.5 25.5 42.1 110.8 111.4 386.0
24 19:50 28.7 39 11.02 13.7 15 15 1013.1 0 23.9 25.4 41.4 109.0 108.8 376.8
24 19:40 29 41 11.78 14.4 13 15 1013.1 0 25.5 26.4 44.0 115.9 117.4 406.8
24 19:30 27.9 46 12.44 15.2 11 15 1001.6 0 26.9 27.3 46.5 122.7 126.0 436.7
24 19:20 28.4 45 12.51 15.3 9 9 1013.1 0 27.0 27.6 47.0 123.9 127.2 440.9
24 19:10 27.7 48 12.84 15.7 11 13 1013.1 0 27.8 28.4 48.7 128.4 132.4 459.2
24 19:00 27.3 48 12.56 15.3 17 24 1001.5 0 27.2 27.6 47.3 124.8 128.4 445.2
24 18:50 28.4 45 12.51 15.6 13 15 1013.1 0 27.0 27.6 47.0 123.9 127.2 440.9
24 18:40 28.9 42 12 15 17 19 1013.1 0 25.9 26.7 44.8 118.1 120.2 416.5
24 18:30 28.9 43 12.29 15.1 15 19 1001.5 0 26.6 26.8 45.4 119.7 122.6 424.9
24 18:20 28.1 48 13.13 16.3 15 17 1013.1 0 28.3 28.7 49.6 130.7 135.4 469.6
24 18:10 26.5 52 13.02 16.1 19 22 1013.1 0 28.2 29.0 50.1 132.2 136.8 474.2
24 18:00 28.4 46 12.79 15.7 20 30 1001.6 0 27.6 27.7 47.5 125.4 129.5 449.0
24 17:50 28.3 47 12.99 16.2 19 26 1013.1 0 28.0 28.4 48.9 128.9 133.3 462.3
24 17:40 30.4 41 12.71 16 15 17 1013.1 0 27.3 27.3 46.6 122.9 126.4 438.4
24 17:30 35 27 10.68 13.2 7 15 1001.5 0 22.9 22.9 36.8 96.9 96.1 333.0
24 17:20 34.2 27 10.24 13 9 11 1013.1 0 22.0 22.8 36.2 95.1 93.3 322.9
24 17:10 33.2 31 11.16 14.2 9 11 1013.1 0 23.9 24.3 39.7 104.4 104.5 362.0
24 17:00 33.4 32 11.64 14.5 11 13 1001.5 0 25.0 24.6 40.7 107.3 108.5 376.4
24 16:50 32.1 35 11.88 14.7 13 13 1013.1 0 25.5 25.6 42.7 112.5 114.1 395.5
24 16:40 31.3 38 12.36 15.6 15 17 1013.1 0 26.5 26.6 44.8 118.1 120.8 419.1
24 16:30 31.3 38 12.36 15.3 15 20 1001.7 0 26.6 26.2 44.3 116.9 119.7 415.4
24 16:20 31.3 40 13.01 16.4 15 17 1013.1 0 27.9 27.5 47.2 124.4 128.6 446.1
24 16:10 31.1 41 13.19 16.3 13 15 1013.1 0 28.3 27.8 48.0 126.5 131.0 454.8
24 16:00 30.6 41 12.85 16.2 17 20 1001.9 0 27.6 27.1 46.5 122.7 126.6 439.4
24 15:50 32.3 36 12.35 15.7 13 15 1013.1 0 26.4 26.2 44.2 116.6 119.2 413.5
24 15:40 32.3 36 12.35 15.7 19 20 1013.1 0 26.4 26.2 44.2 116.6 119.2 413.5
24 15:30 32.1 37 12.56 15.6 19 24 1002.4 0 26.9 26.2 44.6 117.7 120.9 419.6
24 15:20 31.7 37 12.3 15.6 19 19 1013.1 0 26.4 26.4 44.4 117.0 119.5 414.6
24 15:10 29.9 42 12.67 15.9 19 24 1013.1 0 27.3 27.4 46.7 123.2 126.7 439.5
24 15:00 30.1 42 12.81 16.1 24 32 1002.6 0 27.6 27.2 46.7 123.1 127.0 440.7
24 14:50 31 41 13.12 16.2 24 28 1013.1 0 28.1 27.8 47.8 125.9 130.4 452.4
24 14:40 32.1 37 12.56 15.9 30 33 1013.1 0 26.9 26.6 45.1 118.9 122.0 423.1
24 14:30 30.8 40 12.67 16 22 33 1003 0 27.2 26.8 45.8 120.7 124.3 431.2
24 14:20 30.1 42 12.81 16.1 20 26 1013.1 0 27.5 27.6 47.1 124.3 128.1 444.3
24 14:10 29.8 42 12.6 15.8 19 24 1013.1 0 27.1 27.4 46.5 122.7 126.0 437.1
24 14:00 28.7 45 12.72 15.6 19 26 1003.5 0 27.5 27.5 47.2 124.5 128.3 445.0
24 13:50 29.8 42 12.6 15.8 17 24 1013.1 0 27.1 27.4 46.5 122.7 126.0 437.1
24 13:40 29 44 12.64 15.5 22 26 1013.1 0 27.3 27.7 47.2 124.3 127.8 443.2
24 13:30 28.6 45 12.65 15.5 19 24 1003.7 0 27.3 27.5 47.0 124.0 127.6 442.6
24 13:20 27.1 51 13.2 16.1 19 20 1013.1 0 28.5 29.1 50.5 133.1 138.0 478.6
24 13:10 26.3 56 13.86 16.8 19 24 1013.1 0 30.0 30.5 53.6 141.4 148.0 513.6
24 13:00 25.1 59 13.66 16.5 19 24 1003.5 0 29.7 30.2 53.1 140.2 146.6 508.5
24 12:50 25.5 56 13.26 16.3 19 22 1013.1 0 28.8 29.8 51.7 136.4 141.7 491.2
24 12:40 27.1 48 12.42 15.4 20 26 1013.1 0 26.9 27.9 47.4 125.0 128.2 444.2
24 12:30 25.9 54 13.07 15.9 17 24 1004.3 0 28.4 29.0 50.3 132.7 137.5 476.9
24 12:20 26.3 51 12.63 15.6 22 26 1013.1 0 27.4 28.5 48.7 128.5 132.1 458.0
24 12:10 27.8 47 12.64 15.7 20 26 1013.1 0 27.3 28.0 47.9 126.2 129.7 449.9
24 12:00 25.6 57 13.57 16.5 19 24 1004.1 0 29.5 29.9 52.4 138.4 144.6 501.4
24 11:50 25.7 56 13.41 16.5 19 22 1013.1 0 29.1 29.9 52.2 137.7 143.3 496.8
24 11:40 25.3 56 13.11 16.1 17 22 1013.1 0 28.5 29.6 51.2 135.2 140.1 485.6
24 11:30 26 55 13.39 16.3 19 24 1004.5 0 29.1 29.5 51.5 135.9 141.5 490.8
24 11:20 25.2 59 13.73 16.6 17 20 1013.1 0 29.8 30.6 53.8 142.0 148.4 514.8
24 11:10 25 57 13.12 16.1 17 19 1013.1 0 28.5 29.7 51.5 135.8 140.7 487.9
24 11:00 25.4 54 12.71 15.4 19 28 1004.4 0 27.7 28.6 49.2 129.7 133.8 463.7
24 10:50 26.8 46 11.71 14.5 24 26 1013.1 0 25.5 26.9 44.9 118.4 119.8 415.1
24 10:40 26 48 11.69 14.4 24 26 1013.1 0 25.5 27.1 45.3 119.3 120.8 418.4
24 10:30 25.1 55 12.73 15.4 26 35 1004.3 0 27.7 28.7 49.4 130.4 134.5 466.4
24 10:20 25.2 59 13.73 16.6 26 32 1013.1 0 29.8 30.6 53.8 142.0 148.4 514.8
24 10:10 23.9 67 14.49 17.4 26 30 1013.1 0 31.5 32.4 57.9 152.9 161.4 559.8
24 10:00 22.7 70 14.14 16.9 24 33 1004.7 0 30.9 31.9 56.8 150.1 158.0 548.0
24 09:50 23.2 64 13.3 16 19 22 1013.1 0 29.0 30.6 53.4 140.9 146.5 507.7
24 09:40 24.3 58 12.83 15.7 19 20 1013.1 0 28.0 29.5 50.8 133.9 138.2 478.9
24 09:30 24.6 59 13.28 16.1 19 33 1004.1 0 28.9 29.8 51.9 137.1 142.6 494.4
24 09:20 22.8 70 14.22 17 13 41 1004.5 0 31.0 32.0 57.1 150.8 158.9 551.1
24 09:10 25.4 50 11.77 14.2 2 2 1013.1 0 25.7 27.4 46.0 121.1 122.7 425.1
24 09:00 25.4 50 11.77 14.2 6 7 1003.4 0 25.7 27.1 45.5 120.0 121.8 421.9
24 08:50 24.7 53 12 14.7 6 7 1013.1 0 26.2 28.0 47.3 124.5 126.8 439.0
24 08:40 23.5 59 12.48 15.2 6 7 1013.1 0 27.3 29.2 49.9 131.5 135.0 467.6
24 08:30 23.4 60 12.62 15.2 6 13 1003.6 0 27.6 29.1 50.0 132.0 136.0 471.3
24 08:20 23.5 57 12.05 14.7 4 6 1013.1 0 26.4 28.5 48.2 126.9 129.4 448.0
24 08:10 22.7 61 12.32 15 7 7 1013.1 0 27.0 29.2 49.7 131.1 134.3 465.0
24 08:00 22.6 61 12.25 14.7 7 17 1003.4 0 26.9 28.7 49.0 129.4 132.5 458.9
24 07:50 23.9 50 10.82 13.1 7 9 1013.1 0 23.8 26.4 43.2 113.6 113.1 391.3
24 07:40 24 49 10.66 12.6 13 15 1013.1 0 23.4 26.2 42.5 111.9 111.0 383.9
24 07:30 23.6 50 10.63 12.6 15 17 1003.2 0 23.4 25.9 42.2 111.1 110.3 381.5
24 07:20 23.2 52 10.81 12.8 11 13 1013.1 0 23.8 26.6 43.5 114.5 114.0 394.3
24 07:10 23.8 48 10.32 12.1 13 15 1013.1 0 22.7 25.7 41.4 108.8 107.1 370.2
24 07:00 24.2 46 10.12 11.9 11 19 1003.5 0 22.3 24.9 40.0 105.3 103.3 357.2
24 06:50 24.6 44 9.9 11.5 13 15 1013.1 0 21.8 24.9 39.4 103.6 101.0 348.9
24 06:40 24.5 45 10.07 11.8 9 11 1013.1 0 22.2 25.1 40.1 105.4 103.2 356.5
24 06:30 24.3 47 10.4 12.3 9 13 1003.8 0 22.9 25.3 41.0 107.9 106.6 368.6
24 06:20 24.5 46 10.29 12.1 11 11 1013.1 0 22.6 25.5 40.9 107.5 105.8 365.8
24 06:10 24.4 46 10.24 12 11 13 1013.1 0 22.5 25.4 40.8 107.2 105.3 364.1
24 06:00 24.9 43 9.84 11.5 15 26 1003.1 0 21.7 24.3 38.6 101.6 99.1 342.3
24 05:50 24.2 48 10.56 12.5 26 32 1013.1 0 23.2 25.9 42.0 110.6 109.5 378.7
24 05:40 23.9 48 10.38 12.2 11 11 1013.1 0 22.8 25.8 41.5 109.2 107.7 372.3
24 05:30 24 47 10.23 12 11 15 1002.7 0 22.5 25.1 40.5 106.5 104.9 362.5
24 05:20 23.8 48 10.32 12.4 11 13 1013.1 0 22.7 25.7 41.4 108.8 107.1 370.2
24 04:50 25.4 41 9.65 11.2 7 7 1013.1 0 21.2 24.3 38.1 100.2 97.0 335.2
24 04:40 26.1 36 8.81 10.2 11 11 1013.1 0 19.5 22.9 34.9 91.5 86.6 298.7
24 04:30 26.5 36 9.01 10.2 9 11 1002.8 0 19.9 22.7 35.0 92.0 87.7 302.5
24 04:20 26.2 37 9.11 10.7 9 9 1013.1 0 20.1 23.3 35.9 94.2 89.9 310.2
24 04:10 26.4 37 9.21 10.5 13 13 1013.1 0 20.3 23.4 36.1 94.9 90.8 313.4
24 04:00 26.1 40 9.79 11.5 11 15 1002.8 0 21.5 23.9 37.9 99.6 97.0 335.2
24 03:50 28.8 29 8.24 9 13 17 1013.1 0 18.2 21.5 31.9 83.6 77.6 267.5
24 03:40 27.3 35 9.16 10.5 17 24 1013.1 0 20.1 23.1 35.6 93.4 89.2 308.0

Last Refresh: 24-Jan-2021 20:37:40

Most of the information presented on this site is sourced from the Bureau of Meteorology.  Copyright in all material sourced from the Bureau of Meteorology resides with the Commonwealth of Australia.